Indianapolis, IN (46201)

11:04 AM EST on February 11, 2016 (GMT -0500)
North Fountain Square | | Change Station
CLOSE
Current Station
Personal Weather Station
Location: Indianapolis, IN
Elevation: 738 ft
Nearby Weather Stations

Elev 738 ft 39.76 °N, 86.14 °W | Updated 17 seconds ago

Clear
Clear
19.9 °F
Feels Like 20 °F
N
0.0
Wind Variable Wind from NNE
Gusts 0.0 mph

Today
High -- | Low -- °F
--% Chance of Precip.
Yesterday
High -- | Low -- °F
Precip. -- in
Pressure 30.33 in
Visibility 10.0 miles
Clouds Few 25000 ft
Windchill 20 °F
Dew Point -2 °F
Humidity 38%
Rainfall 0.00 in
Snow Depth Not available.
7:42 AM 6:15 PM
Waxing Crescent, 12% visible
METAR KIND 111554Z 32006KT 10SM FEW250 M07/M15 A3029 RMK AO2 SLP270 T10671150
Pressure 30.33 in
Visibility 10.0 miles
Clouds Few 25000 ft
Windchill 20 °F
Dew Point -2 °F
Humidity 38%
Rainfall 0.00 in
Snow Depth Not available.
7:42 AM 6:15 PM
Waxing Crescent, 12% visible
METAR KIND 111554Z 32006KT 10SM FEW250 M07/M15 A3029 RMK AO2 SLP270 T10671150

10-Day Weather Forecast

Almanac

Astronomy

Feb. 11, 2016 Rise Set
Actual Time
Civil Twilight
Nautical Twilight
Astronomical Twilight
Moon
Length of Visible Light
Length of Day
Tomorrow will be .
, % of the Moon is Illuminated

Today's Extremes

State Highs State Lows

Community

WunderPhotos

Upload Photos

1,892,083 photos uploaded!

WunderBlog® & News

Nearby

Air Quality

  Air Quality AQ Index Pollutant
Not available.

Snow Depth

Station Depth Elevation

Earthquake Activity

City Distance Mag. Time & Date
Minimum magnitude displayed is 2.5.

Coastal Water Temperatures

Place Temperature

Stations

Nearby Weather Stations

Station Location Temp. Windchill Dew Point Humidity Wind Precip. Elev Updated Type
                   

Watches & Warnings

There are currently no watches in effect.